sensor_id;sensor_type;location;lat;lon;timestamp;pressure;altitude;pressure_sealevel;temperature
76901;BMP280;65859;43.020;25.096;2023-12-22T00:00:56;97744.03;;;0.75
76901;BMP280;65859;43.020;25.096;2023-12-22T00:03:41;97751.81;;;1.08
76901;BMP280;65859;43.020;25.096;2023-12-22T00:06:26;97751.34;;;1.69
76901;BMP280;65859;43.020;25.096;2023-12-22T00:09:10;97745.41;;;1.14
76901;BMP280;65859;43.020;25.096;2023-12-22T00:11:55;97741.47;;;0.42
76901;BMP280;65859;43.020;25.096;2023-12-22T00:14:40;97744.22;;;0.65
76901;BMP280;65859;43.020;25.096;2023-12-22T00:17:25;97733.91;;;0.27
76901;BMP280;65859;43.020;25.096;2023-12-22T00:20:10;97732.94;;;-0.15
76901;BMP280;65859;43.020;25.096;2023-12-22T00:22:57;97721.00;;;-0.16
76901;BMP280;65859;43.020;25.096;2023-12-22T00:25:44;97725.94;;;0.18
76901;BMP280;65859;43.020;25.096;2023-12-22T00:28:31;97720.19;;;0.03
76901;BMP280;65859;43.020;25.096;2023-12-22T00:31:16;97714.53;;;0.14
76901;BMP280;65859;43.020;25.096;2023-12-22T00:34:01;97724.31;;;0.69
76901;BMP280;65859;43.020;25.096;2023-12-22T00:36:46;97712.53;;;1.13
76901;BMP280;65859;43.020;25.096;2023-12-22T00:39:31;97700.53;;;0.57
76901;BMP280;65859;43.020;25.096;2023-12-22T00:42:17;97700.75;;;0.88
76901;BMP280;65859;43.020;25.096;2023-12-22T00:45:02;97701.03;;;0.86
76901;BMP280;65859;43.020;25.096;2023-12-22T00:47:47;97689.53;;;0.60
76901;BMP280;65859;43.020;25.096;2023-12-22T00:50:31;97691.78;;;0.20
76901;BMP280;65859;43.020;25.096;2023-12-22T00:53:16;97681.25;;;-0.08
76901;BMP280;65859;43.020;25.096;2023-12-22T00:56:03;97673.19;;;-0.25
76901;BMP280;65859;43.020;25.096;2023-12-22T00:58:48;97673.78;;;-0.33
76901;BMP280;65859;43.020;25.096;2023-12-22T01:01:32;97672.91;;;-0.42
76901;BMP280;65859;43.020;25.096;2023-12-22T01:04:17;97655.38;;;-0.18
76901;BMP280;65859;43.020;25.096;2023-12-22T01:07:02;97645.72;;;-0.17
76901;BMP280;65859;43.020;25.096;2023-12-22T01:09:47;97638.50;;;0.26
76901;BMP280;65859;43.020;25.096;2023-12-22T01:12:32;97642.47;;;0.65
76901;BMP280;65859;43.020;25.096;2023-12-22T01:15:16;97636.19;;;0.66
76901;BMP280;65859;43.020;25.096;2023-12-22T01:18:02;97634.63;;;0.65
76901;BMP280;65859;43.020;25.096;2023-12-22T01:20:49;97626.53;;;0.53
76901;BMP280;65859;43.020;25.096;2023-12-22T01:23:34;97625.09;;;0.74
76901;BMP280;65859;43.020;25.096;2023-12-22T01:26:20;97595.19;;;0.80
76901;BMP280;65859;43.020;25.096;2023-12-22T01:29:05;97609.69;;;0.86
76901;BMP280;65859;43.020;25.096;2023-12-22T01:31:50;97600.81;;;0.73
76901;BMP280;65859;43.020;25.096;2023-12-22T01:34:34;97593.84;;;0.83
76901;BMP280;65859;43.020;25.096;2023-12-22T01:37:19;97592.69;;;0.47
76901;BMP280;65859;43.020;25.096;2023-12-22T01:40:04;97582.72;;;0.77
76901;BMP280;65859;43.020;25.096;2023-12-22T01:42:49;97592.59;;;0.80
76901;BMP280;65859;43.020;25.096;2023-12-22T01:45:34;97584.19;;;0.83
76901;BMP280;65859;43.020;25.096;2023-12-22T01:48:19;97587.97;;;0.49
76901;BMP280;65859;43.020;25.096;2023-12-22T01:51:04;97582.00;;;0.63
76901;BMP280;65859;43.020;25.096;2023-12-22T01:53:51;97574.56;;;0.56
76901;BMP280;65859;43.020;25.096;2023-12-22T01:56:38;97580.63;;;0.65
76901;BMP280;65859;43.020;25.096;2023-12-22T01:59:23;97572.59;;;0.89
76901;BMP280;65859;43.020;25.096;2023-12-22T02:02:07;97567.03;;;1.05
76901;BMP280;65859;43.020;25.096;2023-12-22T02:04:53;97570.56;;;0.86
76901;BMP280;65859;43.020;25.096;2023-12-22T02:07:40;97554.16;;;1.08
76901;BMP280;65859;43.020;25.096;2023-12-22T02:10:25;97553.13;;;0.95
76901;BMP280;65859;43.020;25.096;2023-12-22T02:13:11;97543.16;;;0.97
76901;BMP280;65859;43.020;25.096;2023-12-22T02:16:04;97545.81;;;0.84
76901;BMP280;65859;43.020;25.096;2023-12-22T02:18:52;97530.44;;;0.82
76901;BMP280;65859;43.020;25.096;2023-12-22T02:22:02;97536.13;;;0.48
76901;BMP280;65859;43.020;25.096;2023-12-22T02:24:48;97534.94;;;-0.15
76901;BMP280;65859;43.020;25.096;2023-12-22T02:27:48;97540.81;;;-0.23
76901;BMP280;65859;43.020;25.096;2023-12-22T02:33:39;97533.81;;;-0.41
76901;BMP280;65859;43.020;25.096;2023-12-22T02:36:26;97533.34;;;-0.43
76901;BMP280;65859;43.020;25.096;2023-12-22T02:39:15;97511.84;;;-0.35
76901;BMP280;65859;43.020;25.096;2023-12-22T02:42:01;97513.72;;;-0.22
76901;BMP280;65859;43.020;25.096;2023-12-22T02:44:46;97515.56;;;-0.09
76901;BMP280;65859;43.020;25.096;2023-12-22T02:47:31;97508.03;;;-0.24
76901;BMP280;65859;43.020;25.096;2023-12-22T02:50:17;97510.28;;;-0.04
76901;BMP280;65859;43.020;25.096;2023-12-22T02:53:03;97514.53;;;0.20
76901;BMP280;65859;43.020;25.096;2023-12-22T02:55:47;97510.00;;;0.62
76901;BMP280;65859;43.020;25.096;2023-12-22T02:58:34;97507.81;;;0.41
76901;BMP280;65859;43.020;25.096;2023-12-22T03:01:18;97512.41;;;0.72
76901;BMP280;65859;43.020;25.096;2023-12-22T03:04:03;97506.81;;;1.01
76901;BMP280;65859;43.020;25.096;2023-12-22T03:06:48;97506.81;;;0.65
76901;BMP280;65859;43.020;25.096;2023-12-22T03:09:33;97512.34;;;0.49
76901;BMP280;65859;43.020;25.096;2023-12-22T03:12:18;97504.00;;;0.75
76901;BMP280;65859;43.020;25.096;2023-12-22T03:15:04;97505.72;;;0.80
76901;BMP280;65859;43.020;25.096;2023-12-22T03:17:49;97511.84;;;0.47
76901;BMP280;65859;43.020;25.096;2023-12-22T03:20:33;97516.41;;;0.56
76901;BMP280;65859;43.020;25.096;2023-12-22T03:23:18;97502.22;;;0.48
76901;BMP280;65859;43.020;25.096;2023-12-22T03:26:05;97498.47;;;0.77
76901;BMP280;65859;43.020;25.096;2023-12-22T03:28:52;97498.84;;;0.84
76901;BMP280;65859;43.020;25.096;2023-12-22T03:31:36;97491.16;;;1.01
76901;BMP280;65859;43.020;25.096;2023-12-22T03:34:21;97486.59;;;1.29
76901;BMP280;65859;43.020;25.096;2023-12-22T03:37:06;97483.00;;;1.03
76901;BMP280;65859;43.020;25.096;2023-12-22T03:39:50;97478.88;;;1.02
76901;BMP280;65859;43.020;25.096;2023-12-22T03:42:35;97491.28;;;0.96
76901;BMP280;65859;43.020;25.096;2023-12-22T03:45:19;97488.50;;;0.92
76901;BMP280;65859;43.020;25.096;2023-12-22T03:48:05;97485.41;;;0.77
76901;BMP280;65859;43.020;25.096;2023-12-22T03:50:50;97491.97;;;0.52
76901;BMP280;65859;43.020;25.096;2023-12-22T03:53:34;97493.81;;;0.37
76901;BMP280;65859;43.020;25.096;2023-12-22T03:56:20;97487.66;;;0.69
76901;BMP280;65859;43.020;25.096;2023-12-22T03:59:06;97489.19;;;0.48
76901;BMP280;65859;43.020;25.096;2023-12-22T04:01:51;97493.03;;;0.87
76901;BMP280;65859;43.020;25.096;2023-12-22T04:04:40;97492.06;;;0.46
76901;BMP280;65859;43.020;25.096;2023-12-22T04:07:25;97496.31;;;0.42
76901;BMP280;65859;43.020;25.096;2023-12-22T04:10:10;97486.03;;;0.23
76901;BMP280;65859;43.020;25.096;2023-12-22T04:12:55;97498.09;;;0.69
76901;BMP280;65859;43.020;25.096;2023-12-22T04:15:39;97485.25;;;0.95
76901;BMP280;65859;43.020;25.096;2023-12-22T04:18:24;97497.78;;;0.85
76901;BMP280;65859;43.020;25.096;2023-12-22T04:21:09;97500.25;;;1.04
76901;BMP280;65859;43.020;25.096;2023-12-22T04:23:53;97495.75;;;1.18
76901;BMP280;65859;43.020;25.096;2023-12-22T04:26:38;97509.13;;;1.03
76901;BMP280;65859;43.020;25.096;2023-12-22T04:29:24;97493.59;;;1.20
76901;BMP280;65859;43.020;25.096;2023-12-22T04:32:09;97498.38;;;0.82
76901;BMP280;65859;43.020;25.096;2023-12-22T04:34:54;97487.25;;;1.12
76901;BMP280;65859;43.020;25.096;2023-12-22T04:37:38;97488.91;;;1.08
76901;BMP280;65859;43.020;25.096;2023-12-22T04:40:23;97492.41;;;1.04
76901;BMP280;65859;43.020;25.096;2023-12-22T04:43:08;97495.91;;;1.21
76901;BMP280;65859;43.020;25.096;2023-12-22T04:45:53;97492.81;;;1.19
76901;BMP280;65859;43.020;25.096;2023-12-22T04:48:38;97487.06;;;1.40
76901;BMP280;65859;43.020;25.096;2023-12-22T04:51:24;97488.72;;;1.27
76901;BMP280;65859;43.020;25.096;2023-12-22T04:54:08;97501.19;;;1.08
76901;BMP280;65859;43.020;25.096;2023-12-22T04:56:53;97480.53;;;1.20
76901;BMP280;65859;43.020;25.096;2023-12-22T04:59:39;97483.09;;;1.11
76901;BMP280;65859;43.020;25.096;2023-12-22T05:02:24;97488.22;;;1.25
76901;BMP280;65859;43.020;25.096;2023-12-22T05:05:09;97486.34;;;1.17
76901;BMP280;65859;43.020;25.096;2023-12-22T05:07:54;97479.44;;;0.76
76901;BMP280;65859;43.020;25.096;2023-12-22T05:10:39;97488.75;;;0.55
76901;BMP280;65859;43.020;25.096;2023-12-22T05:13:24;97487.22;;;0.54
76901;BMP280;65859;43.020;25.096;2023-12-22T05:16:09;97487.91;;;1.18
76901;BMP280;65859;43.020;25.096;2023-12-22T05:18:53;97486.28;;;1.08
76901;BMP280;65859;43.020;25.096;2023-12-22T05:21:38;97497.84;;;1.16
76901;BMP280;65859;43.020;25.096;2023-12-22T05:24:23;97489.13;;;1.20
76901;BMP280;65859;43.020;25.096;2023-12-22T05:27:08;97485.88;;;1.46
76901;BMP280;65859;43.020;25.096;2023-12-22T05:29:55;97478.22;;;1.50
76901;BMP280;65859;43.020;25.096;2023-12-22T05:32:40;97491.41;;;1.76
76901;BMP280;65859;43.020;25.096;2023-12-22T05:35:25;97497.38;;;1.36
76901;BMP280;65859;43.020;25.096;2023-12-22T05:38:09;97490.91;;;1.34
76901;BMP280;65859;43.020;25.096;2023-12-22T05:40:54;97490.94;;;1.42
76901;BMP280;65859;43.020;25.096;2023-12-22T05:43:39;97483.03;;;1.56
76901;BMP280;65859;43.020;25.096;2023-12-22T05:46:23;97485.31;;;1.58
76901;BMP280;65859;43.020;25.096;2023-12-22T05:49:08;97483.50;;;1.36
76901;BMP280;65859;43.020;25.096;2023-12-22T05:51:52;97490.00;;;1.38
76901;BMP280;65859;43.020;25.096;2023-12-22T05:54:38;97484.38;;;1.54
76901;BMP280;65859;43.020;25.096;2023-12-22T05:57:25;97493.72;;;1.15
76901;BMP280;65859;43.020;25.096;2023-12-22T06:00:12;97494.81;;;0.78
76901;BMP280;65859;43.020;25.096;2023-12-22T06:02:57;97488.34;;;0.75
76901;BMP280;65859;43.020;25.096;2023-12-22T06:05:42;97475.50;;;0.65
76901;BMP280;65859;43.020;25.096;2023-12-22T06:08:26;97460.75;;;0.60
76901;BMP280;65859;43.020;25.096;2023-12-22T06:11:11;97447.63;;;0.52
76901;BMP280;65859;43.020;25.096;2023-12-22T06:13:56;97463.28;;;0.52
76901;BMP280;65859;43.020;25.096;2023-12-22T06:16:41;97463.63;;;0.59
76901;BMP280;65859;43.020;25.096;2023-12-22T06:19:25;97456.59;;;0.59
76901;BMP280;65859;43.020;25.096;2023-12-22T06:22:13;97460.38;;;0.89
76901;BMP280;65859;43.020;25.096;2023-12-22T06:24:57;97450.16;;;1.02
76901;BMP280;65859;43.020;25.096;2023-12-22T06:27:44;97445.25;;;1.31
76901;BMP280;65859;43.020;25.096;2023-12-22T06:30:31;97451.22;;;1.23
76901;BMP280;65859;43.020;25.096;2023-12-22T06:33:16;97442.81;;;0.81
76901;BMP280;65859;43.020;25.096;2023-12-22T06:36:00;97437.69;;;0.76
76901;BMP280;65859;43.020;25.096;2023-12-22T06:38:45;97435.19;;;1.16
76901;BMP280;65859;43.020;25.096;2023-12-22T06:41:30;97434.88;;;1.49
76901;BMP280;65859;43.020;25.096;2023-12-22T06:44:16;97431.16;;;1.89
76901;BMP280;65859;43.020;25.096;2023-12-22T06:47:00;97433.19;;;2.01
76901;BMP280;65859;43.020;25.096;2023-12-22T06:49:44;97409.78;;;1.79
76901;BMP280;65859;43.020;25.096;2023-12-22T06:52:29;97417.63;;;1.79
76901;BMP280;65859;43.020;25.096;2023-12-22T06:55:15;97425.53;;;2.05
76901;BMP280;65859;43.020;25.096;2023-12-22T06:57:59;97426.56;;;1.95
76901;BMP280;65859;43.020;25.096;2023-12-22T07:00:46;97430.44;;;1.49
76901;BMP280;65859;43.020;25.096;2023-12-22T07:03:30;97422.53;;;1.80
76901;BMP280;65859;43.020;25.096;2023-12-22T07:06:16;97423.19;;;1.94
76901;BMP280;65859;43.020;25.096;2023-12-22T07:12:04;97418.63;;;2.61
76901;BMP280;65859;43.020;25.096;2023-12-22T07:14:49;97390.63;;;2.53
76901;BMP280;65859;43.020;25.096;2023-12-22T07:17:34;97428.16;;;2.74
76901;BMP280;65859;43.020;25.096;2023-12-22T07:20:19;97420.38;;;3.21
76901;BMP280;65859;43.020;25.096;2023-12-22T07:23:04;97420.16;;;2.88
76901;BMP280;65859;43.020;25.096;2023-12-22T07:25:49;97425.25;;;2.50
76901;BMP280;65859;43.020;25.096;2023-12-22T07:28:33;97420.63;;;2.38
76901;BMP280;65859;43.020;25.096;2023-12-22T07:31:20;97428.91;;;2.05
76901;BMP280;65859;43.020;25.096;2023-12-22T07:34:05;97429.25;;;2.47
76901;BMP280;65859;43.020;25.096;2023-12-22T07:36:49;97430.34;;;2.55
76901;BMP280;65859;43.020;25.096;2023-12-22T07:39:34;97436.34;;;2.55
76901;BMP280;65859;43.020;25.096;2023-12-22T07:42:19;97439.72;;;2.47
76901;BMP280;65859;43.020;25.096;2023-12-22T07:45:05;97434.78;;;2.37
76901;BMP280;65859;43.020;25.096;2023-12-22T07:47:50;97438.47;;;2.53
76901;BMP280;65859;43.020;25.096;2023-12-22T07:50:35;97441.56;;;2.46
76901;BMP280;65859;43.020;25.096;2023-12-22T07:53:21;97456.97;;;2.57
76901;BMP280;65859;43.020;25.096;2023-12-22T07:56:06;97454.63;;;2.46
76901;BMP280;65859;43.020;25.096;2023-12-22T07:58:53;97456.47;;;2.37
76901;BMP280;65859;43.020;25.096;2023-12-22T08:01:40;97460.16;;;2.19
76901;BMP280;65859;43.020;25.096;2023-12-22T08:04:25;97463.09;;;2.17
76901;BMP280;65859;43.020;25.096;2023-12-22T08:07:09;97471.56;;;2.23
76901;BMP280;65859;43.020;25.096;2023-12-22T08:09:55;97466.31;;;2.23
76901;BMP280;65859;43.020;25.096;2023-12-22T08:12:40;97475.44;;;2.43
76901;BMP280;65859;43.020;25.096;2023-12-22T08:15:25;97474.06;;;2.63
76901;BMP280;65859;43.020;25.096;2023-12-22T08:18:10;97479.25;;;2.97
76901;BMP280;65859;43.020;25.096;2023-12-22T08:20:55;97475.28;;;2.57
76901;BMP280;65859;43.020;25.096;2023-12-22T08:23:40;97490.06;;;2.53
76901;BMP280;65859;43.020;25.096;2023-12-22T08:26:24;97468.34;;;2.69
76901;BMP280;65859;43.020;25.096;2023-12-22T08:29:09;97489.41;;;2.21
76901;BMP280;65859;43.020;25.096;2023-12-22T08:31:55;97481.91;;;2.63
76901;BMP280;65859;43.020;25.096;2023-12-22T08:34:40;97472.03;;;2.34
76901;BMP280;65859;43.020;25.096;2023-12-22T08:37:24;97482.16;;;2.35
76901;BMP280;65859;43.020;25.096;2023-12-22T08:40:09;97484.03;;;2.26
76901;BMP280;65859;43.020;25.096;2023-12-22T08:42:54;97482.66;;;2.37
76901;BMP280;65859;43.020;25.096;2023-12-22T08:45:43;97477.41;;;2.37
76901;BMP280;65859;43.020;25.096;2023-12-22T08:48:29;97478.94;;;2.38
76901;BMP280;65859;43.020;25.096;2023-12-22T08:51:13;97470.19;;;2.26
76901;BMP280;65859;43.020;25.096;2023-12-22T08:53:59;97480.63;;;2.34
76901;BMP280;65859;43.020;25.096;2023-12-22T08:56:44;97479.75;;;2.74
76901;BMP280;65859;43.020;25.096;2023-12-22T08:59:29;97476.53;;;2.51
76901;BMP280;65859;43.020;25.096;2023-12-22T09:02:15;97488.84;;;2.76
76901;BMP280;65859;43.020;25.096;2023-12-22T09:05:00;97483.28;;;2.86
76901;BMP280;65859;43.020;25.096;2023-12-22T09:07:45;97484.69;;;2.58
76901;BMP280;65859;43.020;25.096;2023-12-22T09:10:30;97479.47;;;2.58
76901;BMP280;65859;43.020;25.096;2023-12-22T09:13:15;97475.44;;;2.43
76901;BMP280;65859;43.020;25.096;2023-12-22T09:16:00;97478.22;;;2.55
76901;BMP280;65859;43.020;25.096;2023-12-22T09:18:45;97486.19;;;3.02
76901;BMP280;65859;43.020;25.096;2023-12-22T09:21:29;97479.75;;;2.82
76901;BMP280;65859;43.020;25.096;2023-12-22T09:24:14;97483.44;;;2.81
76901;BMP280;65859;43.020;25.096;2023-12-22T09:27:01;97472.81;;;2.95
76901;BMP280;65859;43.020;25.096;2023-12-22T09:29:47;97470.31;;;2.99
76901;BMP280;65859;43.020;25.096;2023-12-22T09:32:35;97464.75;;;3.09
76901;BMP280;65859;43.020;25.096;2023-12-22T09:35:20;97466.00;;;3.03
76901;BMP280;65859;43.020;25.096;2023-12-22T09:38:06;97471.53;;;3.18
76901;BMP280;65859;43.020;25.096;2023-12-22T09:40:52;97470.50;;;2.93
76901;BMP280;65859;43.020;25.096;2023-12-22T09:43:37;97475.88;;;2.80
76901;BMP280;65859;43.020;25.096;2023-12-22T09:46:24;97474.91;;;3.02
76901;BMP280;65859;43.020;25.096;2023-12-22T09:49:11;97470.50;;;2.85
76901;BMP280;65859;43.020;25.096;2023-12-22T09:51:57;97485.75;;;2.74
76901;BMP280;65859;43.020;25.096;2023-12-22T09:54:43;97472.97;;;2.64
76901;BMP280;65859;43.020;25.096;2023-12-22T09:57:29;97473.59;;;2.61
76901;BMP280;65859;43.020;25.096;2023-12-22T10:00:15;97469.72;;;2.50
76901;BMP280;65859;43.020;25.096;2023-12-22T10:03:04;97475.75;;;2.59
76901;BMP280;65859;43.020;25.096;2023-12-22T10:05:50;97485.47;;;2.58
76901;BMP280;65859;43.020;25.096;2023-12-22T10:08:36;97490.50;;;2.72
76901;BMP280;65859;43.020;25.096;2023-12-22T10:11:22;97480.19;;;2.67
76901;BMP280;65859;43.020;25.096;2023-12-22T10:14:08;97491.31;;;2.64
76901;BMP280;65859;43.020;25.096;2023-12-22T10:16:54;97479.75;;;2.82
76901;BMP280;65859;43.020;25.096;2023-12-22T10:19:40;97467.38;;;3.00
76901;BMP280;65859;43.020;25.096;2023-12-22T10:22:26;97470.00;;;3.09
76901;BMP280;65859;43.020;25.096;2023-12-22T10:25:11;97468.59;;;3.20
76901;BMP280;65859;43.020;25.096;2023-12-22T10:27:59;97456.00;;;3.52
76901;BMP280;65859;43.020;25.096;2023-12-22T10:30:45;97450.88;;;4.89
76901;BMP280;65859;43.020;25.096;2023-12-22T10:33:32;97457.03;;;6.88
76901;BMP280;65859;43.020;25.096;2023-12-22T10:36:17;97451.69;;;6.84
76901;BMP280;65859;43.020;25.096;2023-12-22T10:39:02;97451.19;;;8.74
76901;BMP280;65859;43.020;25.096;2023-12-22T10:41:48;97436.94;;;9.54
76901;BMP280;65859;43.020;25.096;2023-12-22T10:44:40;97430.06;;;10.10
76901;BMP280;65859;43.020;25.096;2023-12-22T10:47:27;97422.03;;;9.72
76901;BMP280;65859;43.020;25.096;2023-12-22T10:50:12;97418.41;;;11.03
76901;BMP280;65859;43.020;25.096;2023-12-22T10:53:01;97408.25;;;11.12
76901;BMP280;65859;43.020;25.096;2023-12-22T10:55:47;97430.78;;;12.66
76901;BMP280;65859;43.020;25.096;2023-12-22T10:58:35;97415.03;;;13.50
76901;BMP280;65859;43.020;25.096;2023-12-22T11:01:22;97414.13;;;13.74
76901;BMP280;65859;43.020;25.096;2023-12-22T11:04:13;97366.38;;;11.60
76901;BMP280;65859;43.020;25.096;2023-12-22T11:07:00;97370.03;;;11.27
76901;BMP280;65859;43.020;25.096;2023-12-22T11:09:51;97370.16;;;10.90
76901;BMP280;65859;43.020;25.096;2023-12-22T11:12:37;97352.41;;;10.98
76901;BMP280;65859;43.020;25.096;2023-12-22T11:15:22;97353.03;;;10.33
76901;BMP280;65859;43.020;25.096;2023-12-22T11:18:08;97355.34;;;10.31
76901;BMP280;65859;43.020;25.096;2023-12-22T11:20:54;97362.53;;;10.30
76901;BMP280;65859;43.020;25.096;2023-12-22T11:23:40;97352.31;;;10.84
76901;BMP280;65859;43.020;25.096;2023-12-22T11:26:26;97351.19;;;10.37
76901;BMP280;65859;43.020;25.096;2023-12-22T11:29:13;97339.31;;;10.20
76901;BMP280;65859;43.020;25.096;2023-12-22T11:32:00;97337.06;;;10.22
76901;BMP280;65859;43.020;25.096;2023-12-22T11:34:50;97347.47;;;10.93
76901;BMP280;65859;43.020;25.096;2023-12-22T11:37:36;97356.59;;;12.93
76901;BMP280;65859;43.020;25.096;2023-12-22T11:40:22;97393.16;;;16.06
76901;BMP280;65859;43.020;25.096;2023-12-22T11:43:07;97419.63;;;17.70
76901;BMP280;65859;43.020;25.096;2023-12-22T11:45:52;97363.75;;;16.06
76901;BMP280;65859;43.020;25.096;2023-12-22T11:48:37;97344.88;;;12.30
76901;BMP280;65859;43.020;25.096;2023-12-22T11:51:24;97347.28;;;11.30
76901;BMP280;65859;43.020;25.096;2023-12-22T11:54:47;97347.16;;;11.08
76901;BMP280;65859;43.020;25.096;2023-12-22T11:57:34;97352.41;;;10.98
76901;BMP280;65859;43.020;25.096;2023-12-22T12:03:07;97344.63;;;10.64
76901;BMP280;65859;43.020;25.096;2023-12-22T12:08:58;97368.34;;;10.50
76901;BMP280;65859;43.020;25.096;2023-12-22T12:14:42;97377.75;;;10.92
76901;BMP280;65859;43.020;25.096;2023-12-22T12:17:27;97374.25;;;10.77
76901;BMP280;65859;43.020;25.096;2023-12-22T12:20:13;97368.84;;;10.66
76901;BMP280;65859;43.020;25.096;2023-12-22T12:22:58;97380.84;;;10.49
76901;BMP280;65859;43.020;25.096;2023-12-22T12:25:45;97385.47;;;10.56
76901;BMP280;65859;43.020;25.096;2023-12-22T12:28:36;97412.75;;;11.04
76901;BMP280;65859;43.020;25.096;2023-12-22T12:31:36;97417.63;;;11.68
76901;BMP280;65859;43.020;25.096;2023-12-22T12:34:26;97411.81;;;11.45
76901;BMP280;65859;43.020;25.096;2023-12-22T12:37:12;97423.53;;;12.77
76901;BMP280;65859;43.020;25.096;2023-12-22T12:39:58;97408.38;;;15.24
76901;BMP280;65859;43.020;25.096;2023-12-22T12:42:48;97405.50;;;13.45
76901;BMP280;65859;43.020;25.096;2023-12-22T12:45:33;97390.06;;;12.83
76901;BMP280;65859;43.020;25.096;2023-12-22T12:48:18;97404.13;;;12.23
76901;BMP280;65859;43.020;25.096;2023-12-22T12:51:06;97424.69;;;12.83
76901;BMP280;65859;43.020;25.096;2023-12-22T12:53:51;97418.59;;;12.36
76901;BMP280;65859;43.020;25.096;2023-12-22T12:59:26;97417.34;;;11.95
76901;BMP280;65859;43.020;25.096;2023-12-22T13:02:11;97425.63;;;11.72
76901;BMP280;65859;43.020;25.096;2023-12-22T13:04:55;97418.81;;;11.74
76901;BMP280;65859;43.020;25.096;2023-12-22T13:07:42;97411.94;;;11.66
76901;BMP280;65859;43.020;25.096;2023-12-22T13:10:26;97396.53;;;11.24
76901;BMP280;65859;43.020;25.096;2023-12-22T13:13:12;97416.84;;;10.98
76901;BMP280;65859;43.020;25.096;2023-12-22T13:15:57;97416.72;;;10.80
76901;BMP280;65859;43.020;25.096;2023-12-22T13:18:43;97424.59;;;10.70
76901;BMP280;65859;43.020;25.096;2023-12-22T13:21:28;97417.66;;;10.58
76901;BMP280;65859;43.020;25.096;2023-12-22T13:24:17;97438.50;;;10.56
76901;BMP280;65859;43.020;25.096;2023-12-22T13:27:03;97456.25;;;10.52
76901;BMP280;65859;43.020;25.096;2023-12-22T13:29:50;97454.06;;;10.24
76901;BMP280;65859;43.020;25.096;2023-12-22T13:32:36;97459.28;;;10.17
76901;BMP280;65859;43.020;25.096;2023-12-22T13:35:23;97452.44;;;10.12
76901;BMP280;65859;43.020;25.096;2023-12-22T13:38:10;97447.72;;;9.98
76901;BMP280;65859;43.020;25.096;2023-12-22T13:40:55;97445.34;;;9.90
76901;BMP280;65859;43.020;25.096;2023-12-22T13:43:40;97455.44;;;9.81
76901;BMP280;65859;43.020;25.096;2023-12-22T13:46:27;97435.97;;;9.66
76901;BMP280;65859;43.020;25.096;2023-12-22T13:49:12;97454.06;;;9.60
76901;BMP280;65859;43.020;25.096;2023-12-22T13:51:57;97458.09;;;9.54
76901;BMP280;65859;43.020;25.096;2023-12-22T13:54:44;97458.44;;;9.49
76901;BMP280;65859;43.020;25.096;2023-12-22T13:57:28;97468.25;;;9.49
76901;BMP280;65859;43.020;25.096;2023-12-22T14:03:04;97474.91;;;9.39
76901;BMP280;65859;43.020;25.096;2023-12-22T14:05:49;97494.19;;;9.39
76901;BMP280;65859;43.020;25.096;2023-12-22T14:08:36;97502.81;;;9.33
76901;BMP280;65859;43.020;25.096;2023-12-22T14:11:21;97500.16;;;9.33
76901;BMP280;65859;43.020;25.096;2023-12-22T14:14:07;97480.53;;;9.11
76901;BMP280;65859;43.020;25.096;2023-12-22T14:16:52;97505.53;;;9.13
76901;BMP280;65859;43.020;25.096;2023-12-22T14:19:36;97511.56;;;9.14
76901;BMP280;65859;43.020;25.096;2023-12-22T14:22:21;97518.38;;;9.15
76901;BMP280;65859;43.020;25.096;2023-12-22T14:25:06;97527.69;;;9.05
76901;BMP280;65859;43.020;25.096;2023-12-22T14:27:51;97520.56;;;9.09
76901;BMP280;65859;43.020;25.096;2023-12-22T14:30:38;97531.13;;;9.09
76901;BMP280;65859;43.020;25.096;2023-12-22T14:33:23;97531.09;;;9.06
76901;BMP280;65859;43.020;25.096;2023-12-22T14:36:07;97519.44;;;9.10
76901;BMP280;65859;43.020;25.096;2023-12-22T14:38:53;97536.72;;;9.04
76901;BMP280;65859;43.020;25.096;2023-12-22T14:41:38;97543.00;;;8.96
76901;BMP280;65859;43.020;25.096;2023-12-22T14:44:23;97547.25;;;8.81
76901;BMP280;65859;43.020;25.096;2023-12-22T14:47:08;97549.44;;;8.76
76901;BMP280;65859;43.020;25.096;2023-12-22T14:49:53;97547.91;;;8.75
76901;BMP280;65859;43.020;25.096;2023-12-22T14:52:38;97538.34;;;8.89
76901;BMP280;65859;43.020;25.096;2023-12-22T14:55:23;97535.63;;;8.86
76901;BMP280;65859;43.020;25.096;2023-12-22T14:58:08;97533.63;;;8.79
76901;BMP280;65859;43.020;25.096;2023-12-22T15:00:54;97507.16;;;8.76
76901;BMP280;65859;43.020;25.096;2023-12-22T15:03:39;97530.44;;;8.70
76901;BMP280;65859;43.020;25.096;2023-12-22T15:06:24;97534.91;;;8.66
76901;BMP280;65859;43.020;25.096;2023-12-22T15:09:10;97543.88;;;8.61
76901;BMP280;65859;43.020;25.096;2023-12-22T15:11:55;97557.38;;;8.56
76901;BMP280;65859;43.020;25.096;2023-12-22T15:14:44;97560.38;;;8.55
76901;BMP280;65859;43.020;25.096;2023-12-22T15:17:29;97553.19;;;8.55
76901;BMP280;65859;43.020;25.096;2023-12-22T15:20:14;97548.47;;;8.45
76901;BMP280;65859;43.020;25.096;2023-12-22T15:22:59;97566.25;;;8.48
76901;BMP280;65859;43.020;25.096;2023-12-22T15:25:44;97571.00;;;8.39
76901;BMP280;65859;43.020;25.096;2023-12-22T15:28:29;97580.09;;;8.42
76901;BMP280;65859;43.020;25.096;2023-12-22T15:31:13;97582.03;;;8.45
76901;BMP280;65859;43.020;25.096;2023-12-22T15:33:58;97577.16;;;8.47
76901;BMP280;65859;43.020;25.096;2023-12-22T15:36:43;97588.94;;;8.69
76901;BMP280;65859;43.020;25.096;2023-12-22T15:39:29;97581.41;;;8.71
76901;BMP280;65859;43.020;25.096;2023-12-22T15:42:15;97582.41;;;8.82
76901;BMP280;65859;43.020;25.096;2023-12-22T15:45:00;97583.72;;;8.91
76901;BMP280;65859;43.020;25.096;2023-12-22T15:47:45;97582.84;;;8.84
76901;BMP280;65859;43.020;25.096;2023-12-22T15:50:29;97593.63;;;8.95
76901;BMP280;65859;43.020;25.096;2023-12-22T15:53:15;97610.94;;;8.92
76901;BMP280;65859;43.020;25.096;2023-12-22T15:56:04;97617.66;;;8.89
76901;BMP280;65859;43.020;25.096;2023-12-22T15:58:49;97617.25;;;8.87
76901;BMP280;65859;43.020;25.096;2023-12-22T16:01:34;97628.53;;;8.84
76901;BMP280;65859;43.020;25.096;2023-12-22T16:04:26;97632.56;;;8.98
76901;BMP280;65859;43.020;25.096;2023-12-22T16:07:11;97613.22;;;8.94
76901;BMP280;65859;43.020;25.096;2023-12-22T16:09:57;97661.31;;;8.99
76901;BMP280;65859;43.020;25.096;2023-12-22T16:12:41;97670.78;;;9.00